Time;durP1;ratioP1;P1;durP2;ratioP2;P2;SDS_P1;SDS_P2;PMS_P1;PMS_P2;Temp;Humidity;BMP_temperature;BMP_pressure;BME280_temperature;BME280_humidity;BME280_pressure;Samples;Min_cycle;Max_cycle;Signal;HPM_P1;HPM_P2
2022/06/20 00:01:42;;;;;;;;;;;20.40;95.10;;;;;;5073848;28;19909;-74
2022/06/20 00:04:11;;;;;;;;;;;20.30;95.30;;;;;;5073367;28;19912;-74
2022/06/20 00:06:38;;;;;;;;;;;20.50;95.10;;;;;;5073855;28;19962;-74
2022/06/20 00:09:04;;;;;;;;;;;20.40;95.60;;;;;;5085810;28;20369;-74
2022/06/20 00:11:36;;;;;;;;;;;20.50;95.30;;;;;;5092784;28;19923;-74
2022/06/20 00:14:01;;;;;;;;;;;20.30;95.70;;;;;;5092453;28;19977;-74
2022/06/20 00:16:27;;;;;;;;;;;20.20;96.50;;;;;;5080674;28;20358;-74
2022/06/20 00:18:52;;;;;;;;;;;19.90;97.20;;;;;;5083435;28;20432;-74
2022/06/20 00:21:20;;;;;;;;;;;19.80;97.90;;;;;;5073032;28;19989;-74
2022/06/20 00:23:45;;;;;;;;;;;19.60;98.50;;;;;;5073064;28;19920;-74
2022/06/20 00:26:11;;;;;;;;;;;19.30;99.90;;;;;;5073789;28;20319;-74
2022/06/20 00:28:36;;;;;;;;;;;19.50;99.90;;;;;;5071940;28;19908;-74
2022/06/20 00:31:02;;;;;;;;;;;19.20;99.90;;;;;;5073549;28;19909;-74
2022/06/20 00:33:27;;;;;;;;;;;19.30;99.90;;;;;;5071802;28;20370;-74
2022/06/20 00:35:53;;;;;;;;;;;19.80;99.90;;;;;;5073129;28;19920;-74
2022/06/20 00:38:20;;;;;;;;;;;19.60;99.90;;;;;;5073430;28;20065;-74
2022/06/20 00:40:50;;;;;;;;;;;19.40;99.90;;;;;;5073481;28;20439;-74
2022/06/20 00:43:48;;;;;;;;;;;19.60;99.90;;;;;;5071915;28;20372;-74
2022/06/20 00:46:24;;;;;;;;;;;19.80;99.90;;;;;;5051554;28;20329;-74
2022/06/20 00:48:55;;;;;;;;;;;19.80;99.90;;;;;;5080958;28;20170;-74
2022/06/20 00:51:41;;;;;;;;;;;20.00;99.90;;;;;;5072673;28;19909;-74
2022/06/20 00:54:19;;;;;;;;;;;19.90;99.90;;;;;;5072043;28;19908;-74
2022/06/20 00:56:56;;;;;;;;;;;20.00;99.90;;;;;;5086182;28;19915;-74
2022/06/20 00:59:25;;;;;;;;;;;20.90;99.60;;;;;;5092171;28;19912;-74
2022/06/20 01:01:50;;;;;;;;;;;21.40;96.90;;;;;;5091748;28;19908;-75
2022/06/20 01:04:22;;;;;;;;;;;21.90;95.00;;;;;;5091474;28;20383;-74
2022/06/20 01:06:52;;;;;;;;;;;22.10;94.40;;;;;;5090605;28;20272;-74
2022/06/20 01:09:21;;;;;;;;;;;21.70;95.50;;;;;;5083266;28;19915;-74
2022/06/20 01:11:54;;;;;;;;;;;21.00;98.00;;;;;;5091586;28;20402;-74
2022/06/20 01:14:21;;;;;;;;;;;20.50;98.90;;;;;;5091410;28;20292;-74
2022/06/20 01:16:46;;;;;;;;;;;20.40;99.40;;;;;;5083143;28;19947;-74
2022/06/20 01:19:18;;;;;;;;;;;20.10;99.90;;;;;;5078681;28;20442;-74
2022/06/20 01:21:43;;;;;;;;;;;20.00;99.90;;;;;;5071972;28;19986;-74
2022/06/20 01:24:08;;;;;;;;;;;19.80;99.90;;;;;;5072007;28;20005;-74
2022/06/20 01:26:51;;;;;;;;;;;19.70;99.90;;;;;;5072427;28;20407;-74
2022/06/20 01:29:17;;;;;;;;;;;19.70;99.90;;;;;;5072244;28;19915;-74
2022/06/20 01:31:43;;;;;;;;;;;19.40;99.90;;;;;;5071728;28;19909;-74
2022/06/20 01:34:11;;;;;;;;;;;19.30;99.90;;;;;;5071691;28;19908;-74
2022/06/20 01:39:23;;;;;;;;;;;19.10;99.90;;;;;;5086432;28;19915;-74
2022/06/20 01:44:42;;;;;;;;;;;19.10;99.90;;;;;;5090116;28;20221;-74
2022/06/20 01:47:07;;;;;;;;;;;18.90;99.90;;;;;;5087822;28;19908;-74
2022/06/20 01:49:34;;;;;;;;;;;18.70;99.90;;;;;;5082683;28;19908;-74
2022/06/20 01:52:13;;;;;;;;;;;18.60;99.90;;;;;;5071781;28;20357;-74
2022/06/20 01:54:41;;;;;;;;;;;18.50;99.90;;;;;;5071313;28;19908;-74
2022/06/20 01:57:07;;;;;;;;;;;18.50;99.90;;;;;;5071700;28;19948;-74
2022/06/20 01:59:40;;;;;;;;;;;18.50;99.90;;;;;;5071526;28;20377;-74
2022/06/20 02:02:05;;;;;;;;;;;18.40;99.90;;;;;;5071383;28;20616;-74
2022/06/20 02:04:32;;;;;;;;;;;18.40;99.90;;;;;;5071356;28;19912;-74
2022/06/20 02:07:00;;;;;;;;;;;18.50;99.90;;;;;;5071621;28;19912;-74
2022/06/20 02:09:26;;;;;;;;;;;18.40;99.90;;;;;;5071663;28;19965;-74
2022/06/20 02:11:51;;;;;;;;;;;18.40;99.90;;;;;;5070963;28;20380;-74
2022/06/20 02:14:22;;;;;;;;;;;18.40;99.90;;;;;;5070667;28;19909;-74
2022/06/20 02:16:51;;;;;;;;;;;18.30;99.90;;;;;;5071917;28;20081;-74
2022/06/20 02:19:18;;;;;;;;;;;18.30;99.90;;;;;;5077479;28;19908;-74
2022/06/20 02:21:45;;;;;;;;;;;18.40;99.90;;;;;;5075678;28;19916;-74
2022/06/20 02:24:14;;;;;;;;;;;18.40;99.90;;;;;;5071164;28;19913;-74
2022/06/20 02:26:43;;;;;;;;;;;18.50;99.90;;;;;;5070860;28;20409;-73
2022/06/20 02:29:22;;;;;;;;;;;18.50;99.90;;;;;;5071023;28;20354;-74
2022/06/20 02:32:11;;;;;;;;;;;18.70;99.90;;;;;;5085062;28;20357;-74
2022/06/20 02:34:37;;;;;;;;;;;18.80;99.90;;;;;;5081815;28;20344;-74
2022/06/20 02:37:04;;;;;;;;;;;18.90;99.90;;;;;;5089402;28;19962;-74
2022/06/20 02:39:30;;;;;;;;;;;18.90;99.90;;;;;;5090815;28;19912;-74
2022/06/20 02:41:58;;;;;;;;;;;18.70;99.90;;;;;;5090365;28;19912;-75
2022/06/20 02:44:25;;;;;;;;;;;18.40;99.90;;;;;;5088099;28;19916;-75
2022/06/20 02:46:51;;;;;;;;;;;18.20;99.90;;;;;;5087975;28;19908;-75
2022/06/20 02:49:19;;;;;;;;;;;18.00;99.90;;;;;;5093149;28;20335;-76
2022/06/20 02:51:50;;;;;;;;;;;17.90;99.90;;;;;;5088999;28;19912;-76
2022/06/20 02:54:17;;;;;;;;;;;17.90;99.90;;;;;;5086963;28;19912;-74
2022/06/20 02:56:47;;;;;;;;;;;17.90;99.90;;;;;;5088320;28;20019;-76
2022/06/20 02:59:15;;;;;;;;;;;18.00;99.90;;;;;;5090657;28;19957;-77
2022/06/20 03:01:52;;;;;;;;;;;17.90;99.90;;;;;;5091904;28;19965;-76
2022/06/20 03:04:18;;;;;;;;;;;17.80;99.90;;;;;;5090427;28;20010;-75
2022/06/20 03:06:48;;;;;;;;;;;17.90;99.90;;;;;;5091975;28;19919;-75
2022/06/20 03:09:15;;;;;;;;;;;18.00;99.90;;;;;;5093609;28;19974;-75
2022/06/20 03:11:40;;;;;;;;;;;17.80;99.90;;;;;;5081790;28;19951;-75
2022/06/20 03:14:07;;;;;;;;;;;17.80;99.90;;;;;;5092431;28;20387;-74
2022/06/20 03:16:33;;;;;;;;;;;17.70;99.90;;;;;;5091515;28;19916;-75
2022/06/20 03:19:00;;;;;;;;;;;17.80;99.90;;;;;;5090031;28;19938;-75
2022/06/20 03:21:28;;;;;;;;;;;17.70;99.90;;;;;;5075708;28;19920;-75
2022/06/20 03:23:53;;;;;;;;;;;17.70;99.90;;;;;;5074289;28;19916;-77
2022/06/20 03:26:21;;;;;;;;;;;17.70;99.90;;;;;;5074923;28;20274;-75
2022/06/20 03:28:46;;;;;;;;;;;17.70;99.90;;;;;;5074372;28;20358;-75
2022/06/20 03:31:12;;;;;;;;;;;17.90;99.90;;;;;;5075038;28;19919;-75
2022/06/20 03:33:37;;;;;;;;;;;18.00;99.90;;;;;;5074265;28;19915;-75
2022/06/20 03:36:05;;;;;;;;;;;17.90;99.90;;;;;;5074603;28;19915;-75
2022/06/20 03:38:32;;;;;;;;;;;17.90;99.90;;;;;;5074766;28;19932;-75
2022/06/20 03:40:58;;;;;;;;;;;18.00;99.90;;;;;;5074638;28;20000;-77
2022/06/20 03:43:25;;;;;;;;;;;18.00;99.90;;;;;;5073034;28;19955;-75
2022/06/20 03:45:56;;;;;;;;;;;18.00;99.90;;;;;;5074429;28;20285;-75
2022/06/20 03:48:25;;;;;;;;;;;18.10;99.90;;;;;;5077480;28;19948;-77
2022/06/20 03:50:56;;;;;;;;;;;18.10;99.90;;;;;;5085039;28;20332;-75
2022/06/20 03:53:42;;;;;;;;;;;18.10;99.90;;;;;;5073337;28;19909;-75
2022/06/20 03:56:11;;;;;;;;;;;18.10;99.90;;;;;;5087404;28;19912;-75
2022/06/20 03:58:40;;;;;;;;;;;18.10;99.90;;;;;;5093373;28;19912;-75
2022/06/20 04:01:15;;;;;;;;;;;18.20;99.90;;;;;;5093703;28;19912;-74
2022/06/20 04:04:07;;;;;;;;;;;18.50;99.90;;;;;;5092963;28;19908;-76
2022/06/20 04:06:40;;;;;;;;;;;18.70;99.90;;;;;;5090564;28;20300;-76
2022/06/20 04:12:41;;;;;;;;;;;18.90;99.90;;;;;;5081442;28;19915;-75
2022/06/20 04:15:09;;;;;;;;;;;18.50;99.90;;;;;;5092545;28;19919;-76
2022/06/20 04:21:02;;;;;;;;;;;18.30;99.90;;;;;;5072481;28;20336;-75
2022/06/20 04:23:39;;;;;;;;;;;18.30;99.90;;;;;;5092454;28;19916;-75
2022/06/20 04:26:04;;;;;;;;;;;18.20;99.90;;;;;;5091946;28;19912;-75
2022/06/20 04:28:35;;;;;;;;;;;18.10;99.90;;;;;;5091726;28;19915;-75
2022/06/20 04:31:33;;;;;;;;;;;18.10;99.90;;;;;;5093008;28;20002;-75
2022/06/20 04:33:58;;;;;;;;;;;18.10;99.90;;;;;;5039045;28;20003;-75
2022/06/20 04:36:36;;;;;;;;;;;18.10;99.90;;;;;;5073420;28;20028;-75
2022/06/20 04:39:09;;;;;;;;;;;18.10;99.90;;;;;;5073469;28;19909;-76
2022/06/20 04:41:53;;;;;;;;;;;18.00;99.90;;;;;;5073083;28;20046;-75
2022/06/20 04:44:19;;;;;;;;;;;18.00;99.90;;;;;;5070981;28;19974;-75
2022/06/20 04:46:48;;;;;;;;;;;18.00;99.90;;;;;;5073473;28;19940;-75
2022/06/20 04:49:14;;;;;;;;;;;18.00;99.90;;;;;;5083274;28;20096;-75
2022/06/20 04:51:40;;;;;;;;;;;17.90;99.90;;;;;;5075174;28;20354;-75
2022/06/20 04:54:09;;;;;;;;;;;18.00;99.90;;;;;;5091493;28;19919;-75
2022/06/20 04:56:35;;;;;;;;;;;18.00;99.90;;;;;;5088537;28;19962;-75
2022/06/20 04:59:02;;;;;;;;;;;18.10;99.90;;;;;;5092432;28;19908;-75
2022/06/20 05:01:31;;;;;;;;;;;18.10;99.90;;;;;;5091903;28;20412;-75
2022/06/20 05:04:01;;;;;;;;;;;18.10;99.90;;;;;;5091937;28;20009;-75
2022/06/20 05:06:30;;;;;;;;;;;18.20;99.90;;;;;;5092765;28;19912;-75
2022/06/20 05:08:59;;;;;;;;;;;18.30;99.90;;;;;;5092180;28;20005;-75
2022/06/20 05:11:27;;;;;;;;;;;18.40;99.90;;;;;;5091648;28;19912;-75
2022/06/20 05:14:05;;;;;;;;;;;18.50;99.90;;;;;;5090052;28;19912;-75
2022/06/20 05:16:34;;;;;;;;;;;18.50;99.90;;;;;;5089985;28;19915;-75
2022/06/20 05:19:02;;;;;;;;;;;18.60;99.90;;;;;;5078721;28;19914;-75
2022/06/20 05:21:32;;;;;;;;;;;18.60;99.90;;;;;;5080554;28;19949;-75
2022/06/20 05:24:00;;;;;;;;;;;18.70;99.90;;;;;;5071991;28;20343;-75
2022/06/20 05:26:33;;;;;;;;;;;18.80;99.90;;;;;;5072444;28;20308;-75
2022/06/20 05:29:01;;;;;;;;;;;18.90;99.90;;;;;;5072244;28;19915;-77
2022/06/20 05:31:30;;;;;;;;;;;19.20;99.90;;;;;;5082800;28;19995;-74
2022/06/20 05:33:59;;;;;;;;;;;19.20;99.90;;;;;;5086318;28;19919;-75
2022/06/20 05:36:35;;;;;;;;;;;19.30;99.90;;;;;;5083843;28;19988;-76
2022/06/20 05:39:03;;;;;;;;;;;19.20;99.90;;;;;;5070824;28;19908;-78
2022/06/20 05:41:29;;;;;;;;;;;19.20;99.90;;;;;;5073243;28;19941;-77
2022/06/20 05:43:55;;;;;;;;;;;19.00;99.90;;;;;;5075821;28;20513;-76
2022/06/20 05:46:38;;;;;;;;;;;19.00;99.90;;;;;;5073135;28;19918;-77
2022/06/20 05:49:06;;;;;;;;;;;18.90;99.90;;;;;;5085173;28;19914;-75
2022/06/20 05:51:33;;;;;;;;;;;18.90;99.90;;;;;;5069608;28;19955;-76
2022/06/20 05:54:14;;;;;;;;;;;19.00;99.90;;;;;;5070528;28;19909;-76
2022/06/20 05:56:42;;;;;;;;;;;19.10;99.90;;;;;;5070003;28;19913;-75
2022/06/20 05:59:12;;;;;;;;;;;19.00;99.90;;;;;;5069797;28;20015;-75
2022/06/20 06:01:39;;;;;;;;;;;19.00;99.90;;;;;;5069720;28;19990;-75
2022/06/20 06:04:04;;;;;;;;;;;19.10;99.90;;;;;;5074011;28;19958;-76
2022/06/20 06:06:36;;;;;;;;;;;19.20;99.90;;;;;;5075148;28;19943;-76
2022/06/20 06:09:06;;;;;;;;;;;19.20;99.90;;;;;;5073905;28;20382;-76
2022/06/20 06:11:40;;;;;;;;;;;19.40;99.90;;;;;;5079222;28;20607;-75
2022/06/20 06:14:12;;;;;;;;;;;19.50;99.90;;;;;;5068449;28;19953;-75
2022/06/20 06:16:47;;;;;;;;;;;19.60;99.90;;;;;;5071001;28;19908;-75
2022/06/20 06:19:22;;;;;;;;;;;19.60;99.90;;;;;;5080832;28;19955;-75
2022/06/20 06:21:48;;;;;;;;;;;19.80;99.90;;;;;;5073003;28;19916;-76
2022/06/20 06:24:15;;;;;;;;;;;20.00;99.90;;;;;;5070690;28;19913;-76
2022/06/20 06:26:42;;;;;;;;;;;20.00;99.90;;;;;;5080459;28;19908;-75
2022/06/20 06:29:14;;;;;;;;;;;20.20;99.90;;;;;;5081899;28;19963;-75
2022/06/20 06:31:40;;;;;;;;;;;21.10;99.90;;;;;;5072443;28;19912;-76
2022/06/20 06:34:21;;;;;;;;;;;21.20;99.90;;;;;;5069989;28;20391;-75
2022/06/20 06:36:50;;;;;;;;;;;20.80;99.90;;;;;;5071069;28;20003;-75
2022/06/20 06:39:19;;;;;;;;;;;20.70;99.90;;;;;;5073449;28;19913;-75
2022/06/20 06:41:46;;;;;;;;;;;20.80;99.90;;;;;;5070436;28;19934;-75
2022/06/20 06:44:19;;;;;;;;;;;21.00;99.90;;;;;;5069548;28;19922;-75
2022/06/20 06:46:48;;;;;;;;;;;22.70;99.90;;;;;;5073980;28;19939;-75
2022/06/20 06:49:32;;;;;;;;;;;23.80;99.90;;;;;;5075444;28;19909;-75
2022/06/20 06:52:09;;;;;;;;;;;23.40;99.90;;;;;;5070656;28;19908;-75
2022/06/20 06:54:41;;;;;;;;;;;24.20;99.90;;;;;;5083844;28;20342;-75
2022/06/20 06:57:09;;;;;;;;;;;24.10;99.90;;;;;;5090310;28;19908;-75
2022/06/20 06:59:38;;;;;;;;;;;22.80;99.90;;;;;;5081966;28;19912;-75
2022/06/20 07:02:08;;;;;;;;;;;22.00;99.90;;;;;;5070860;28;19915;-75
2022/06/20 07:04:38;;;;;;;;;;;21.50;99.90;;;;;;5077418;28;19919;-75
2022/06/20 07:07:18;;;;;;;;;;;21.10;99.90;;;;;;5076110;28;19940;-75
2022/06/20 07:09:46;;;;;;;;;;;21.30;99.90;;;;;;5070732;28;20262;-75
2022/06/20 07:12:17;;;;;;;;;;;23.10;99.90;;;;;;5070517;28;19908;-75
2022/06/20 07:14:43;;;;;;;;;;;24.40;99.90;;;;;;5069761;28;19916;-75
2022/06/20 07:17:18;;;;;;;;;;;25.00;99.90;;;;;;5075037;28;19915;-75
2022/06/20 07:19:47;;;;;;;;;;;25.70;99.90;;;;;;5078517;28;19916;-76
2022/06/20 07:22:14;;;;;;;;;;;26.40;99.90;;;;;;5069932;28;19917;-75
2022/06/20 07:24:41;;;;;;;;;;;26.30;99.90;;;;;;5070097;28;19965;-75
2022/06/20 07:27:09;;;;;;;;;;;26.40;99.90;;;;;;5070610;28;19909;-75
2022/06/20 07:29:55;;;;;;;;;;;26.40;99.90;;;;;;5070365;28;19909;-75
2022/06/20 07:32:25;;;;;;;;;;;26.60;99.90;;;;;;5073881;28;19915;-75
2022/06/20 07:34:57;;;;;;;;;;;27.00;99.90;;;;;;5088758;28;20281;-75
2022/06/20 07:37:31;;;;;;;;;;;27.20;99.90;;;;;;5089369;28;20296;-76
2022/06/20 07:39:59;;;;;;;;;;;27.20;99.90;;;;;;5090085;28;19912;-75
2022/06/20 07:42:25;;;;;;;;;;;27.70;99.90;;;;;;5090053;28;19909;-75
2022/06/20 07:44:54;;;;;;;;;;;27.80;99.80;;;;;;5092609;28;19957;-76
2022/06/20 07:47:25;;;;;;;;;;;27.40;99.20;;;;;;5084975;28;19913;-76
2022/06/20 07:49:55;;;;;;;;;;;27.70;98.90;;;;;;5087402;28;19908;-76
2022/06/20 07:52:32;;;;;;;;;;;28.20;98.50;;;;;;5075811;28;19908;-76
2022/06/20 07:54:59;;;;;;;;;;;27.90;96.90;;;;;;5073596;28;19924;-76
2022/06/20 07:57:32;;;;;;;;;;;28.40;98.10;;;;;;5072858;28;19916;-76
2022/06/20 08:00:09;;;;;;;;;;;28.70;97.70;;;;;;5087131;28;19961;-76
2022/06/20 08:02:40;;;;;;;;;;;28.30;96.10;;;;;;5084733;28;19912;-76
2022/06/20 08:05:06;;;;;;;;;;;28.30;97.30;;;;;;5082840;28;19916;-76
2022/06/20 08:07:41;;;;;;;;;;;28.30;94.70;;;;;;5074179;28;19970;-76
2022/06/20 08:10:07;;;;;;;;;;;29.00;93.70;;;;;;5074040;28;19908;-75
2022/06/20 08:12:33;;;;;;;;;;;29.30;96.50;;;;;;5072494;28;20285;-76
2022/06/20 08:15:01;;;;;;;;;;;29.50;94.00;;;;;;5072988;28;19908;-76
2022/06/20 08:17:29;;;;;;;;;;;28.90;94.50;;;;;;5084179;28;20097;-75
2022/06/20 08:19:55;;;;;;;;;;;28.80;94.00;;;;;;5080088;28;20478;-76
2022/06/20 08:22:34;;;;;;;;;;;29.20;96.40;;;;;;5073166;28;20167;-76
2022/06/20 08:25:07;;;;;;;;;;;29.80;94.80;;;;;;5073306;28;19912;-76
2022/06/20 08:27:43;;;;;;;;;;;29.80;94.00;;;;;;5073498;28;19999;-76
2022/06/20 08:30:12;;;;;;;;;;;29.60;92.60;;;;;;5073362;28;19908;-76
2022/06/20 08:32:43;;;;;;;;;;;29.50;93.20;;;;;;5073106;28;19916;-76
2022/06/20 08:35:08;;;;;;;;;;;30.40;92.50;;;;;;5072627;28;19909;-76
2022/06/20 08:37:37;;;;;;;;;;;30.00;92.30;;;;;;5074286;28;20337;-76
2022/06/20 08:40:05;;;;;;;;;;;30.30;92.50;;;;;;5073487;28;20011;-76
2022/06/20 08:42:36;;;;;;;;;;;31.30;92.80;;;;;;5073104;28;19915;-76
2022/06/20 08:45:21;;;;;;;;;;;30.50;90.00;;;;;;5086407;28;20284;-75
2022/06/20 08:47:46;;;;;;;;;;;30.00;94.00;;;;;;5091979;28;19966;-75
2022/06/20 08:50:30;;;;;;;;;;;30.10;94.50;;;;;;5083814;28;19932;-76
2022/06/20 08:53:12;;;;;;;;;;;31.10;90.90;;;;;;5072621;28;19958;-75
2022/06/20 08:55:46;;;;;;;;;;;31.20;90.60;;;;;;5091773;28;19958;-75
2022/06/20 08:58:16;;;;;;;;;;;30.20;84.20;;;;;;5092394;28;20388;-76
2022/06/20 09:00:42;;;;;;;;;;;29.60;84.10;;;;;;5092196;28;19908;-75
2022/06/20 09:03:18;;;;;;;;;;;30.40;81.70;;;;;;5083770;28;19915;-75
2022/06/20 09:06:07;;;;;;;;;;;30.50;79.90;;;;;;5087259;28;19998;-75
2022/06/20 09:08:36;;;;;;;;;;;30.70;80.90;;;;;;5073993;28;19909;-75
2022/06/20 09:11:30;;;;;;;;;;;30.50;77.40;;;;;;5078786;28;19913;-76
2022/06/20 09:14:05;;;;;;;;;;;31.00;80.30;;;;;;5074457;28;19955;-75
2022/06/20 09:16:36;;;;;;;;;;;31.20;78.60;;;;;;5089117;28;19914;-75
2022/06/20 09:19:01;;;;;;;;;;;30.70;79.90;;;;;;5079481;28;20274;-75
2022/06/20 09:21:31;;;;;;;;;;;30.70;78.40;;;;;;5081743;28;19916;-75
2022/06/20 09:24:15;;;;;;;;;;;30.60;76.80;;;;;;5071974;28;19962;-75
2022/06/20 09:27:04;;;;;;;;;;;30.90;80.10;;;;;;5071906;28;20007;-75
2022/06/20 09:29:29;;;;;;;;;;;30.90;80.90;;;;;;5078839;28;19912;-75
2022/06/20 09:32:32;;;;;;;;;;;30.90;81.40;;;;;;5091379;28;19912;-75
2022/06/20 09:35:20;;;;;;;;;;;31.60;78.60;;;;;;5028989;28;19909;-75
2022/06/20 09:38:04;;;;;;;;;;;31.50;80.20;;;;;;5077510;28;19917;-75
2022/06/20 09:40:37;;;;;;;;;;;31.50;76.00;;;;;;5077198;28;19909;-75
2022/06/20 09:43:06;;;;;;;;;;;31.90;79.20;;;;;;5071508;28;19961;-75
2022/06/20 09:45:31;;;;;;;;;;;31.30;75.80;;;;;;5072024;28;19920;-75
2022/06/20 09:48:00;;;;;;;;;;;32.00;78.40;;;;;;5079865;28;20285;-75
2022/06/20 09:50:25;;;;;;;;;;;32.50;73.70;;;;;;5073304;28;19991;-75
2022/06/20 09:53:14;;;;;;;;;;;30.90;75.80;;;;;;5071348;28;19947;-75
2022/06/20 09:55:46;;;;;;;;;;;31.60;76.40;;;;;;5086780;28;19915;-75
2022/06/20 09:58:17;;;;;;;;;;;31.40;72.60;;;;;;5080970;28;20292;-75
2022/06/20 10:00:54;;;;;;;;;;;30.70;75.30;;;;;;5072314;28;19908;-75
2022/06/20 10:03:23;;;;;;;;;;;30.80;73.10;;;;;;5073175;28;20258;-75
2022/06/20 10:06:01;;;;;;;;;;;30.50;69.90;;;;;;5088182;28;19993;-76
2022/06/20 10:08:46;;;;;;;;;;;30.80;75.20;;;;;;5071050;28;19999;-75
2022/06/20 10:11:11;;;;;;;;;;;30.90;70.30;;;;;;5086231;28;19949;-75
2022/06/20 10:13:49;;;;;;;;;;;30.00;73.10;;;;;;5090352;28;19908;-75
2022/06/20 10:16:22;;;;;;;;;;;30.60;70.00;;;;;;5090786;28;19908;-75
2022/06/20 10:18:57;;;;;;;;;;;30.90;73.40;;;;;;5095870;28;20343;-75
2022/06/20 10:21:34;;;;;;;;;;;31.20;71.60;;;;;;5074351;28;19916;-75
2022/06/20 10:24:09;;;;;;;;;;;30.90;67.50;;;;;;5070963;28;19958;-75
2022/06/20 10:26:40;;;;;;;;;;;31.20;68.70;;;;;;5069974;28;19908;-75
2022/06/20 10:29:13;;;;;;;;;;;30.60;68.70;;;;;;5069474;28;19951;-75
2022/06/20 10:31:41;;;;;;;;;;;30.90;69.20;;;;;;5070496;28;20012;-75
2022/06/20 10:34:26;;;;;;;;;;;31.10;66.50;;;;;;5070674;28;20359;-75
2022/06/20 10:36:57;;;;;;;;;;;32.00;69.10;;;;;;5070537;28;19909;-75
2022/06/20 10:39:41;;;;;;;;;;;31.50;67.00;;;;;;5070650;28;19912;-75
2022/06/20 10:42:15;;;;;;;;;;;31.30;68.30;;;;;;5083681;28;19915;-75
2022/06/20 10:44:53;;;;;;;;;;;31.30;71.30;;;;;;5089394;28;19951;-75
2022/06/20 10:47:23;;;;;;;;;;;31.80;67.50;;;;;;5083851;28;19912;-76
2022/06/20 10:49:51;;;;;;;;;;;31.90;66.70;;;;;;5083809;28;19935;-76
2022/06/20 10:52:17;;;;;;;;;;;31.00;70.00;;;;;;5074186;28;19908;-75
2022/06/20 10:54:45;;;;;;;;;;;31.40;64.30;;;;;;5070583;28;19916;-74
2022/06/20 10:57:22;;;;;;;;;;;32.50;65.60;;;;;;5070844;28;20034;-75
2022/06/20 10:59:48;;;;;;;;;;;30.50;65.20;;;;;;5070416;28;19913;-75
2022/06/20 11:02:13;;;;;;;;;;;31.50;68.20;;;;;;5070802;28;19908;-75
2022/06/20 11:04:55;;;;;;;;;;;30.90;69.30;;;;;;5078069;28;20042;-75
2022/06/20 11:07:26;;;;;;;;;;;29.10;69.50;;;;;;5071353;28;19913;-75
2022/06/20 11:10:15;;;;;;;;;;;30.80;70.80;;;;;;5089999;28;19954;-75
2022/06/20 11:12:50;;;;;;;;;;;31.40;68.40;;;;;;5089773;28;19908;-75
2022/06/20 11:15:34;;;;;;;;;;;32.00;66.90;;;;;;5089704;28;19916;-74
2022/06/20 11:18:03;;;;;;;;;;;30.10;70.80;;;;;;5088194;28;19909;-74
2022/06/20 11:20:38;;;;;;;;;;;29.70;67.80;;;;;;5076493;28;20238;-74
2022/06/20 11:23:04;;;;;;;;;;;28.80;73.40;;;;;;5087521;28;20466;-75
2022/06/20 11:25:42;;;;;;;;;;;28.00;74.20;;;;;;5093838;28;19912;-75
2022/06/20 11:28:07;;;;;;;;;;;28.30;74.80;;;;;;5093660;28;19908;-75
2022/06/20 11:30:45;;;;;;;;;;;27.90;73.00;;;;;;5093917;28;19908;-76
2022/06/20 11:33:16;;;;;;;;;;;27.20;74.50;;;;;;5092807;28;20345;-76
2022/06/20 11:35:48;;;;;;;;;;;26.80;78.50;;;;;;5092593;28;19963;-76
2022/06/20 11:38:37;;;;;;;;;;;26.70;75.30;;;;;;5094046;28;20307;-77
2022/06/20 11:41:09;;;;;;;;;;;26.80;78.40;;;;;;5085240;28;19920;-76
2022/06/20 11:43:53;;;;;;;;;;;26.90;76.90;;;;;;5093290;28;20486;-77
2022/06/20 11:46:27;;;;;;;;;;;26.90;77.30;;;;;;5091983;28;19935;-76
2022/06/20 11:49:11;;;;;;;;;;;26.80;76.90;;;;;;5080851;28;19913;-76
2022/06/20 11:51:43;;;;;;;;;;;27.00;79.10;;;;;;5080718;28;19935;-76
2022/06/20 11:54:17;;;;;;;;;;;27.20;76.00;;;;;;5087463;28;19908;-76
2022/06/20 11:56:55;;;;;;;;;;;26.40;77.50;;;;;;5093800;28;19937;-75
2022/06/20 11:59:24;;;;;;;;;;;25.30;81.10;;;;;;5085516;28;19907;-75
2022/06/20 12:01:52;;;;;;;;;;;25.10;80.80;;;;;;5088670;28;19957;-76
2022/06/20 12:04:24;;;;;;;;;;;25.30;80.80;;;;;;5079034;28;20094;-75
2022/06/20 12:06:54;;;;;;;;;;;25.50;81.40;;;;;;5083931;28;19914;-75
2022/06/20 12:09:39;;;;;;;;;;;27.40;77.80;;;;;;5073462;28;19909;-75
2022/06/20 12:12:23;;;;;;;;;;;27.40;80.40;;;;;;5073558;28;19915;-75
2022/06/20 12:15:03;;;;;;;;;;;26.90;77.00;;;;;;5088270;28;19977;-75
2022/06/20 12:17:35;;;;;;;;;;;27.10;78.20;;;;;;5088784;28;19909;-75
2022/06/20 12:25:38;;;;;;;;;;;25.60;79.70;;;;;;5079473;28;19920;-75
2022/06/20 12:28:18;;;;;;;;;;;27.20;79.50;;;;;;5077010;28;19931;-75
2022/06/20 12:30:51;;;;;;;;;;;26.80;78.70;;;;;;5071894;28;20007;-75
2022/06/20 12:33:16;;;;;;;;;;;29.10;73.80;;;;;;5072456;28;19917;-75
2022/06/20 12:35:48;;;;;;;;;;;30.20;72.10;;;;;;5073622;28;19977;-75
2022/06/20 12:38:23;;;;;;;;;;;30.50;69.90;;;;;;5073677;28;20262;-75
2022/06/20 12:40:52;;;;;;;;;;;31.10;71.00;;;;;;5072941;28;19912;-76
2022/06/20 12:43:19;;;;;;;;;;;29.80;71.10;;;;;;5072781;28;20357;-76
2022/06/20 12:46:00;;;;;;;;;;;33.00;66.80;;;;;;5073067;28;19912;-75
2022/06/20 12:48:25;;;;;;;;;;;31.90;63.10;;;;;;5083245;28;19969;-75
2022/06/20 12:50:51;;;;;;;;;;;29.50;70.30;;;;;;5074853;28;19946;-75
2022/06/20 12:53:28;;;;;;;;;;;29.50;73.30;;;;;;5072063;28;19908;-74
2022/06/20 12:55:57;;;;;;;;;;;30.00;70.00;;;;;;5073063;28;20323;-74
2022/06/20 12:58:41;;;;;;;;;;;28.80;72.40;;;;;;5073069;28;20354;-75
2022/06/20 13:01:13;;;;;;;;;;;30.50;67.60;;;;;;5070671;28;20424;-75
2022/06/20 13:03:42;;;;;;;;;;;30.40;68.30;;;;;;5074940;28;20331;-75
2022/06/20 13:06:19;;;;;;;;;;;28.70;71.70;;;;;;5089020;28;20284;-75
2022/06/20 13:09:03;;;;;;;;;;;27.20;76.40;;;;;;5071604;28;19968;-75
2022/06/20 13:11:35;;;;;;;;;;;27.20;79.00;;;;;;5070685;28;19909;-75
2022/06/20 13:14:12;;;;;;;;;;;26.90;77.10;;;;;;5072281;28;19961;-75
2022/06/20 13:16:45;;;;;;;;;;;28.40;75.10;;;;;;5072466;28;19938;-75
2022/06/20 13:19:22;;;;;;;;;;;27.90;75.10;;;;;;5082557;28;20342;-75
2022/06/20 13:21:57;;;;;;;;;;;28.10;77.20;;;;;;5074890;28;20015;-74
2022/06/20 13:24:42;;;;;;;;;;;25.80;81.00;;;;;;5070674;28;20456;-74
2022/06/20 13:27:24;;;;;;;;;;;25.00;84.30;;;;;;5072725;28;20323;-74
2022/06/20 13:30:02;;;;;;;;;;;24.70;84.30;;;;;;5071384;28;20285;-75
2022/06/20 13:32:37;;;;;;;;;;;25.30;84.10;;;;;;5085186;28;19908;-75
2022/06/20 13:35:21;;;;;;;;;;;25.60;83.30;;;;;;5091518;28;19912;-75
2022/06/20 13:37:46;;;;;;;;;;;24.90;87.20;;;;;;5090961;28;19997;-75
2022/06/20 13:40:16;;;;;;;;;;;24.20;88.70;;;;;;5079308;28;19951;-75
2022/06/20 13:42:45;;;;;;;;;;;24.50;88.20;;;;;;5077122;28;19909;-75
2022/06/20 13:45:10;;;;;;;;;;;23.80;90.40;;;;;;5071189;28;20007;-74
2022/06/20 13:47:49;;;;;;;;;;;23.20;91.90;;;;;;5078492;28;20003;-75
2022/06/20 13:50:24;;;;;;;;;;;22.90;92.70;;;;;;5072327;28;19908;-75
2022/06/20 13:52:52;;;;;;;;;;;22.80;93.40;;;;;;5084875;28;19987;-74
2022/06/20 13:55:18;;;;;;;;;;;22.30;94.10;;;;;;5084778;28;19915;-76
2022/06/20 13:57:46;;;;;;;;;;;21.40;99.80;;;;;;5072288;28;19912;-74
2022/06/20 14:00:25;;;;;;;;;;;21.20;99.90;;;;;;5082530;28;20380;-75
2022/06/20 14:03:11;;;;;;;;;;;20.80;99.90;;;;;;5074669;28;19915;-74
2022/06/20 14:05:38;;;;;;;;;;;20.00;99.90;;;;;;5087381;28;20388;-75
2022/06/20 14:08:19;;;;;;;;;;;19.60;99.90;;;;;;5074586;28;19909;-75
2022/06/20 14:10:47;;;;;;;;;;;19.80;99.90;;;;;;5075156;28;19916;-74
2022/06/20 14:13:17;;;;;;;;;;;19.80;99.90;;;;;;5073976;28;19909;-75
2022/06/20 14:15:42;;;;;;;;;;;20.00;99.90;;;;;;5071826;28;20019;-74
2022/06/20 14:18:17;;;;;;;;;;;20.20;99.90;;;;;;5081614;28;20384;-74
2022/06/20 14:21:02;;;;;;;;;;;20.10;99.90;;;;;;5080384;28;19969;-74
2022/06/20 14:23:28;;;;;;;;;;;20.10;99.90;;;;;;5070599;28;19920;-74
2022/06/20 14:25:55;;;;;;;;;;;20.30;99.90;;;;;;5071515;28;19920;-74
2022/06/20 14:28:24;;;;;;;;;;;20.20;99.90;;;;;;5071651;28;19916;-74
2022/06/20 14:30:52;;;;;;;;;;;20.40;99.90;;;;;;5071658;28;20426;-74
2022/06/20 14:33:34;;;;;;;;;;;20.40;99.90;;;;;;5070065;28;19985;-74
2022/06/20 14:36:03;;;;;;;;;;;20.20;99.90;;;;;;5071572;28;19908;-74
2022/06/20 14:38:37;;;;;;;;;;;20.30;99.90;;;;;;5077461;28;20289;-74
2022/06/20 14:41:39;;;;;;;;;;;20.30;99.90;;;;;;5071705;28;20336;-74
2022/06/20 14:43:57;;;;;;;;;;;20.30;99.90;;;;;;5070848;28;19922;-75
2022/06/20 14:46:24;;;;;;;;;;;20.40;99.90;;;;;;5071158;28;20003;-74
2022/06/20 14:48:57;;;;;;;;;;;20.50;99.90;;;;;;5087748;28;19908;-74
2022/06/20 14:51:22;;;;;;;;;;;20.80;99.90;;;;;;5080573;28;20366;-74
2022/06/20 14:53:58;;;;;;;;;;;20.90;99.90;;;;;;5074575;28;19915;-74
2022/06/20 14:56:26;;;;;;;;;;;21.10;99.90;;;;;;5081340;28;19909;-74
2022/06/20 14:59:01;;;;;;;;;;;21.10;99.90;;;;;;5077865;28;19908;-74
2022/06/20 15:01:34;;;;;;;;;;;20.80;99.90;;;;;;5076939;28;19913;-74